YLW weather

Kelowna International Airport
Kelowna, British Columbia, Canada

Public forecast

Using degrees Celsius for public forecast. Weather courtesy of forecast.io.

Current aviation weather report (METAR) for Kelowna International Airport

Retrieved 2019/10/13 18:00 UTC (55 minutes ago):

CYLW 131800Z AUTO 14002KT 9SM -RA OVC036 06/05 A2993 RMK SLP147

Aviation forecast (TAF) for Kelowna International Airport

Retrieved 2019/10/13 19:42 UTC (0 seconds ago):

TAF CYLW 131838Z 1319/1407 VRB03KT P6SM -RA SCT020 OVC040 TEMPO 1319/1321 5SM -RA BR BKN020 OVC040 FM132100 34006KT P6SM BKN060 TEMPO 1321/1407 P6SM -SHRA FEW030 OVC050 RMK FCST BASED ON AUTO OBS NXT FCST BY 140100Z